createdAt,value
2019-05-23T00:00:33.822Z,99.13
2019-05-23T00:01:35.846Z,98.65
2019-05-23T00:02:36.250Z,98.94
2019-05-23T00:03:34.178Z,99.51
2019-05-23T00:04:35.798Z,99.13
2019-05-23T00:05:36.064Z,98.94
2019-05-23T00:06:35.148Z,99.13
2019-05-23T00:07:36.299Z,98.84
2019-05-23T00:08:36.738Z,99.03
2019-05-23T00:09:36.551Z,99.03
2019-05-23T00:10:37.537Z,99.22
2019-05-23T00:11:39.661Z,99.32
2019-05-23T00:12:37.183Z,99.32
2019-05-23T00:13:36.196Z,99.69
2019-05-23T00:14:37.152Z,99.22
2019-05-23T00:15:36.757Z,99.41
2019-05-23T00:16:36.559Z,99.51
2019-05-23T00:17:36.504Z,99.60
2019-05-23T00:18:38.092Z,99.22
2019-05-23T00:19:39.181Z,99.60
2019-05-23T00:20:39.742Z,99.51
2019-05-23T00:21:39.343Z,99.51
2019-05-23T00:22:39.778Z,99.22
2019-05-23T00:23:39.516Z,99.13
2019-05-23T00:24:39.178Z,99.60
2019-05-23T00:25:39.676Z,99.51
2019-05-23T00:26:40.138Z,99.60
2019-05-23T00:27:40.613Z,99.22
2019-05-23T00:28:39.985Z,99.51
2019-05-23T00:29:40.749Z,99.13
2019-05-23T00:30:41.205Z,99.22
2019-05-23T00:31:40.654Z,99.13
2019-05-23T00:32:41.182Z,99.32
2019-05-23T00:33:41.022Z,99.22
2019-05-23T00:34:41.678Z,99.22
2019-05-23T00:35:41.550Z,99.60
2019-05-23T00:36:42.222Z,99.79
2019-05-23T00:37:41.787Z,99.89
2019-05-23T00:38:41.403Z,99.98
2019-05-23T00:39:42.134Z,99.99
2019-05-23T00:40:41.891Z,99.99
2019-05-23T00:41:42.287Z,99.99
2019-05-23T00:42:42.823Z,99.99
2019-05-23T00:43:43.344Z,99.99
2019-05-23T00:44:43.196Z,99.99
2019-05-23T00:45:43.132Z,99.99
2019-05-23T00:46:43.214Z,99.99
2019-05-23T00:47:42.428Z,99.99
2019-05-23T00:48:43.219Z,99.99
2019-05-23T00:49:44.840Z,99.98
2019-05-23T00:50:42.850Z,99.99
2019-05-23T00:51:43.354Z,99.99
2019-05-23T00:52:44.484Z,99.99
2019-05-23T00:53:43.518Z,99.99
2019-05-23T00:54:44.167Z,99.99
2019-05-23T00:55:45.005Z,99.99
2019-05-23T00:56:45.095Z,99.99
2019-05-23T00:57:44.731Z,99.99
2019-05-23T00:58:46.266Z,99.99
2019-05-23T00:59:45.818Z,99.99
2019-05-23T01:00:46.055Z,99.99
2019-05-23T01:01:45.567Z,99.99
2019-05-23T01:02:45.635Z,99.99
2019-05-23T01:03:46.820Z,99.99
2019-05-23T01:04:46.190Z,99.99
2019-05-23T01:05:46.549Z,99.99
2019-05-23T01:06:46.839Z,99.99
2019-05-23T01:07:45.729Z,99.99
2019-05-23T01:08:46.855Z,99.99
2019-05-23T01:09:47.939Z,99.99
2019-05-23T01:10:47.202Z,99.99
2019-05-23T01:11:47.224Z,99.99
2019-05-23T01:12:48.391Z,99.99
2019-05-23T01:13:46.889Z,99.99
2019-05-23T01:14:48.250Z,99.99
2019-05-23T01:15:48.628Z,99.99
2019-05-23T01:16:48.879Z,99.99
2019-05-23T01:17:47.369Z,99.99
2019-05-23T01:18:47.322Z,99.99
2019-05-23T01:19:49.683Z,99.99
2019-05-23T01:20:48.245Z,99.99
2019-05-23T01:21:49.167Z,99.99
2019-05-23T01:22:48.729Z,99.99
2019-05-23T01:23:49.531Z,99.99
2019-05-23T01:24:48.037Z,99.99
2019-05-23T01:25:49.688Z,99.99
2019-05-23T01:26:50.797Z,99.99
2019-05-23T01:27:50.301Z,99.99
2019-05-23T01:28:50.154Z,99.99
2019-05-23T01:29:50.613Z,99.99
2019-05-23T01:30:51.339Z,99.99
2019-05-23T01:31:51.207Z,99.99
2019-05-23T01:32:51.247Z,99.99
2019-05-23T01:33:51.905Z,99.99
2019-05-23T01:34:51.310Z,99.99
2019-05-23T01:35:51.619Z,99.99
2019-05-23T01:36:51.995Z,99.99
2019-05-23T01:37:52.247Z,99.99
2019-05-23T01:38:51.915Z,99.99
2019-05-23T01:39:49.594Z,99.99
2019-05-23T01:40:51.500Z,99.99
2019-05-23T01:41:52.936Z,99.99
2019-05-23T01:42:52.050Z,99.99
2019-05-23T01:43:51.484Z,99.99
2019-05-23T01:44:52.059Z,99.99
2019-05-23T01:45:50.870Z,99.99
2019-05-23T01:46:51.029Z,99.99
2019-05-23T01:47:51.133Z,99.99
2019-05-23T01:48:52.534Z,99.99
2019-05-23T01:49:52.830Z,99.99
2019-05-23T01:50:52.163Z,99.99
2019-05-23T01:51:54.049Z,99.99
2019-05-23T01:52:54.860Z,99.99
2019-05-23T01:53:53.133Z,99.99
2019-05-23T01:54:53.962Z,99.99
2019-05-23T01:55:54.464Z,99.99
2019-05-23T01:56:53.562Z,99.99
2019-05-23T01:57:54.584Z,99.99
2019-05-23T01:58:54.108Z,99.99
2019-05-23T02:00:08.176Z,99.99
2019-05-23T02:00:54.418Z,99.99
2019-05-23T02:01:56.442Z,99.99
2019-05-23T02:02:54.952Z,99.99
2019-05-23T02:03:53.695Z,99.99
2019-05-23T02:04:56.631Z,99.99
2019-05-23T02:05:54.916Z,99.99
2019-05-23T02:06:54.352Z,99.99
2019-05-23T02:07:55.761Z,99.99
2019-05-23T02:08:56.559Z,99.99
2019-05-23T02:09:55.706Z,99.99
2019-05-23T02:10:55.128Z,99.99
2019-05-23T02:11:55.885Z,99.99
2019-05-23T02:12:56.018Z,99.99
2019-05-23T02:13:56.208Z,99.99
2019-05-23T02:14:56.819Z,99.99
2019-05-23T02:15:55.733Z,99.99
2019-05-23T02:16:56.841Z,99.99
2019-05-23T02:17:58.657Z,99.99
2019-05-23T02:18:58.006Z,99.99
2019-05-23T02:19:55.617Z,99.99
2019-05-23T02:20:55.858Z,99.99
2019-05-23T02:21:58.540Z,99.99
2019-05-23T02:22:55.020Z,99.99
2019-05-23T02:23:55.184Z,99.99
2019-05-23T02:24:55.357Z,99.99
2019-05-23T02:25:56.778Z,99.99
2019-05-23T02:26:56.869Z,99.99
2019-05-23T02:27:58.804Z,99.99
2019-05-23T02:28:57.968Z,99.99
2019-05-23T02:29:57.033Z,99.99
2019-05-23T02:30:58.962Z,99.99
2019-05-23T02:31:56.639Z,99.99
2019-05-23T02:32:58.840Z,99.99
2019-05-23T02:33:59.924Z,99.99
2019-05-23T02:34:57.198Z,99.99
2019-05-23T02:36:00.273Z,99.99
2019-05-23T02:37:01.402Z,99.99
2019-05-23T02:37:59.233Z,99.99
2019-05-23T02:38:59.591Z,99.99
2019-05-23T02:39:59.189Z,99.99
2019-05-23T02:40:59.631Z,99.99
2019-05-23T02:41:58.389Z,99.99
2019-05-23T02:42:59.607Z,99.99
2019-05-23T02:44:00.541Z,99.99
2019-05-23T02:45:02.060Z,99.99
2019-05-23T02:45:59.662Z,99.99
2019-05-23T02:46:59.488Z,99.99
2019-05-23T02:47:59.643Z,99.99
2019-05-23T02:48:59.965Z,99.99
2019-05-23T02:50:00.021Z,99.99
2019-05-23T02:51:00.435Z,99.99
2019-05-23T02:52:00.417Z,99.99
2019-05-23T02:53:04.464Z,99.99
2019-05-23T02:54:03.738Z,99.99
2019-05-23T02:55:02.290Z,99.99
2019-05-23T02:56:02.113Z,99.99
2019-05-23T02:57:05.096Z,99.99
2019-05-23T02:58:03.892Z,99.99
2019-05-23T02:59:04.653Z,99.99
2019-05-23T03:00:03.689Z,99.99
2019-05-23T03:01:04.802Z,99.99
2019-05-23T03:02:05.292Z,99.99
2019-05-23T03:03:05.185Z,99.99
2019-05-23T03:04:04.324Z,99.99
2019-05-23T03:05:04.773Z,99.99
2019-05-23T03:06:03.925Z,99.99
2019-05-23T03:07:02.785Z,99.99
2019-05-23T03:08:05.694Z,99.99
2019-05-23T03:09:06.401Z,99.99
2019-05-23T03:10:07.217Z,99.99
2019-05-23T03:11:06.093Z,99.99
2019-05-23T03:12:07.088Z,99.99
2019-05-23T03:13:07.759Z,99.99
2019-05-23T03:14:03.545Z,99.99
2019-05-23T03:15:07.719Z,99.99
2019-05-23T03:16:03.841Z,99.99
2019-05-23T03:17:08.246Z,99.99
2019-05-23T03:18:05.242Z,99.99
2019-05-23T03:19:08.139Z,99.99
2019-05-23T03:20:08.743Z,99.99
2019-05-23T03:21:08.443Z,99.99
2019-05-23T03:22:09.355Z,99.99
2019-05-23T03:23:09.002Z,99.99
2019-05-23T03:24:09.249Z,99.99
2019-05-23T03:25:10.249Z,99.99
2019-05-23T03:26:09.252Z,99.99
2019-05-23T03:27:05.518Z,99.99
2019-05-23T03:28:06.495Z,99.99
2019-05-23T03:29:08.734Z,99.99
2019-05-23T03:30:09.193Z,99.99
2019-05-23T03:31:27.416Z,99.99
2019-05-23T03:32:09.545Z,99.99
2019-05-23T03:33:06.356Z,99.99
2019-05-23T03:34:08.213Z,99.99
2019-05-23T03:35:10.721Z,99.99
2019-05-23T03:36:09.753Z,99.99
2019-05-23T03:37:13.847Z,99.99
2019-05-23T03:38:07.199Z,99.99
2019-05-23T03:39:07.372Z,99.99
2019-05-23T03:40:11.737Z,99.99
2019-05-23T03:41:11.247Z,99.99
2019-05-23T03:42:09.924Z,99.99
2019-05-23T03:43:10.360Z,99.99
2019-05-23T03:44:11.288Z,99.99
2019-05-23T03:45:11.417Z,99.99
2019-05-23T03:46:10.060Z,99.99
2019-05-23T03:47:10.589Z,99.99
2019-05-23T03:48:12.176Z,99.99
2019-05-23T03:49:13.516Z,99.99
2019-05-23T03:50:11.572Z,99.99
2019-05-23T03:51:11.755Z,99.99
2019-05-23T03:52:13.780Z,99.99
2019-05-23T03:53:10.110Z,99.99
2019-05-23T03:54:10.031Z,99.99
2019-05-23T03:55:14.143Z,99.99
2019-05-23T03:56:14.299Z,99.99
2019-05-23T03:57:13.893Z,99.99
2019-05-23T03:58:14.034Z,99.99
2019-05-23T03:59:14.696Z,99.99
2019-05-23T04:00:10.633Z,99.99
2019-05-23T04:01:10.818Z,99.99
2019-05-23T04:02:15.049Z,99.99
2019-05-23T04:03:13.055Z,99.99
2019-05-23T04:04:13.983Z,99.99
2019-05-23T04:05:16.349Z,99.99
2019-05-23T04:06:15.087Z,99.99
2019-05-23T04:07:15.149Z,99.99
2019-05-23T04:08:16.105Z,99.99
2019-05-23T04:09:16.113Z,99.99
2019-05-23T04:10:14.392Z,99.99
2019-05-23T04:11:14.907Z,99.99
2019-05-23T04:12:12.772Z,99.99
2019-05-23T04:13:16.115Z,99.99
2019-05-23T04:14:17.957Z,99.99
2019-05-23T04:15:18.860Z,99.99
2019-05-23T04:16:17.196Z,99.99
2019-05-23T04:17:17.174Z,99.99
2019-05-23T04:18:17.538Z,99.99
2019-05-23T04:19:13.956Z,99.89
2019-05-23T04:20:18.194Z,99.99
2019-05-23T04:21:18.783Z,99.79
2019-05-23T04:22:16.283Z,99.69
2019-05-23T04:23:16.110Z,99.32
2019-05-23T04:24:18.607Z,99.60
2019-05-23T04:25:17.665Z,99.69
2019-05-23T04:26:19.132Z,99.51
2019-05-23T04:27:17.365Z,99.51
2019-05-23T04:28:19.283Z,99.41
2019-05-23T04:29:19.546Z,98.55
2019-05-23T04:30:20.439Z,97.79
2019-05-23T04:31:21.137Z,97.60
2019-05-23T04:32:20.346Z,97.99
2019-05-23T04:33:16.275Z,98.55
2019-05-23T04:34:20.051Z,98.65
2019-05-23T04:35:19.821Z,98.74
2019-05-23T04:36:19.290Z,98.55
2019-05-23T04:37:20.707Z,98.36
2019-05-23T04:38:20.600Z,98.46
2019-05-23T04:39:19.482Z,98.27
2019-05-23T04:40:18.933Z,98.74
2019-05-23T04:41:19.991Z,98.94
2019-05-23T04:42:18.791Z,99.32
2019-05-23T04:43:20.226Z,99.60
2019-05-23T04:44:19.296Z,98.74
2019-05-23T04:45:20.648Z,98.55
2019-05-23T04:46:21.725Z,98.84
2019-05-23T04:47:18.487Z,99.32
2019-05-23T04:48:19.898Z,99.41
2019-05-23T04:49:18.765Z,98.94
2019-05-23T04:50:23.267Z,99.41
2019-05-23T04:51:22.904Z,99.51
2019-05-23T04:52:23.549Z,99.79
2019-05-23T04:53:22.396Z,98.74
2019-05-23T04:54:22.173Z,99.22
2019-05-23T04:55:21.637Z,99.51
2019-05-23T04:56:22.450Z,99.69
2019-05-23T04:57:21.544Z,99.69
2019-05-23T04:58:23.416Z,99.69
2019-05-23T04:59:23.799Z,99.41
2019-05-23T05:00:22.060Z,99.41
2019-05-23T05:01:22.608Z,99.32
2019-05-23T05:02:26.312Z,98.65
2019-05-23T05:03:22.470Z,98.27
2019-05-23T05:04:21.102Z,98.36
2019-05-23T05:05:24.314Z,98.46
2019-05-23T05:06:22.974Z,98.84
2019-05-23T05:07:23.595Z,99.60
2019-05-23T05:08:23.289Z,99.41
2019-05-23T05:09:21.886Z,99.22
2019-05-23T05:10:24.061Z,98.74
2019-05-23T05:11:30.188Z,98.94
2019-05-23T05:12:22.336Z,98.55
2019-05-23T05:13:23.408Z,98.74
2019-05-23T05:14:23.258Z,99.60
2019-05-23T05:15:24.628Z,98.99
2019-05-23T05:16:24.439Z,98.89
2019-05-23T05:17:25.290Z,99.37
2019-05-23T05:18:25.378Z,98.99
2019-05-23T05:19:24.963Z,98.79
2019-05-23T05:20:24.255Z,98.32
2019-05-23T05:21:25.307Z,97.65
2019-05-23T05:22:25.587Z,98.03
2019-05-23T05:23:24.626Z,97.75
2019-05-23T05:24:26.130Z,96.80
2019-05-23T05:25:25.541Z,96.98
2019-05-23T05:26:25.485Z,96.89
2019-05-23T05:27:26.339Z,96.89
2019-05-23T05:28:26.562Z,96.51
2019-05-23T05:29:26.370Z,95.36
2019-05-23T05:30:25.366Z,95.17
2019-05-23T05:31:25.934Z,95.32
2019-05-23T05:32:41.448Z,94.74
2019-05-23T05:33:26.676Z,94.93
2019-05-23T05:34:26.827Z,95.03
2019-05-23T05:35:27.259Z,95.12
2019-05-23T05:36:26.262Z,95.12
2019-05-23T05:37:27.391Z,95.22
2019-05-23T05:38:28.919Z,94.65
2019-05-23T05:39:28.884Z,95.61
2019-05-23T05:40:27.420Z,95.03
2019-05-23T05:41:28.835Z,94.17
2019-05-23T05:42:28.209Z,94.08
2019-05-23T05:43:28.617Z,93.70
2019-05-23T05:44:29.056Z,93.60
2019-05-23T05:45:30.049Z,93.74
2019-05-23T05:46:30.143Z,92.84
2019-05-23T05:47:31.023Z,93.46
2019-05-23T05:48:29.549Z,93.17
2019-05-23T05:49:31.351Z,92.79
2019-05-23T05:50:33.113Z,92.41
2019-05-23T05:51:30.013Z,92.84
2019-05-23T05:52:28.668Z,93.03
2019-05-23T05:53:29.866Z,92.69
2019-05-23T05:54:32.355Z,92.22
2019-05-23T05:55:32.100Z,92.50
2019-05-23T05:56:32.252Z,92.32
2019-05-23T05:57:29.620Z,92.41
2019-05-23T05:58:29.818Z,92.22
2019-05-23T05:59:30.021Z,91.74
2019-05-23T06:00:30.195Z,91.55
2019-05-23T06:01:33.841Z,91.17
2019-05-23T06:02:30.835Z,92.17
2019-05-23T06:03:30.710Z,91.12
2019-05-23T06:04:30.907Z,90.64
2019-05-23T06:05:31.088Z,90.26
2019-05-23T06:06:31.297Z,90.31
2019-05-23T06:07:31.462Z,90.40
2019-05-23T06:08:31.626Z,89.92
2019-05-23T06:09:31.786Z,89.45
2019-05-23T06:10:31.981Z,88.97
2019-05-23T06:11:32.177Z,88.59
2019-05-23T06:12:32.347Z,88.20
2019-05-23T06:13:32.565Z,88.59
2019-05-23T06:14:32.719Z,88.68
2019-05-23T06:15:32.944Z,88.20
2019-05-23T06:16:33.073Z,88.78
2019-05-23T06:17:33.125Z,89.35
2019-05-23T06:18:33.306Z,89.06
2019-05-23T06:19:33.494Z,89.54
2019-05-23T06:20:33.667Z,88.97
2019-05-23T06:21:33.845Z,88.78
2019-05-23T06:22:34.012Z,88.97
2019-05-23T06:23:34.170Z,88.97
2019-05-23T06:24:43.995Z,89.25
2019-05-23T06:25:34.516Z,89.68
2019-05-23T06:26:34.675Z,88.82
2019-05-23T06:27:34.841Z,87.87
2019-05-23T06:28:35.010Z,87.48
2019-05-23T06:29:35.167Z,87.15
2019-05-23T06:30:35.788Z,86.67
2019-05-23T06:31:35.468Z,86.96
2019-05-23T06:32:35.667Z,87.09
2019-05-23T06:33:35.836Z,85.75
2019-05-23T06:34:36.011Z,85.28
2019-05-23T06:35:36.189Z,85.28
2019-05-23T06:36:36.353Z,85.28
2019-05-23T06:37:36.541Z,84.13
2019-05-23T06:38:36.700Z,82.70
2019-05-23T06:39:36.883Z,83.46
2019-05-23T06:40:37.075Z,82.98
2019-05-23T06:41:37.217Z,82.26
2019-05-23T06:42:37.382Z,82.03
2019-05-23T06:43:37.554Z,82.07
2019-05-23T06:44:37.720Z,82.35
2019-05-23T06:45:37.918Z,82.07
2019-05-23T06:46:38.097Z,82.26
2019-05-23T06:47:38.239Z,82.40
2019-05-23T06:48:38.419Z,82.49
2019-05-23T06:49:38.592Z,82.11
2019-05-23T06:50:38.771Z,81.73
2019-05-23T06:51:38.930Z,81.63
2019-05-23T06:52:39.118Z,81.10
2019-05-23T06:53:39.338Z,80.04
2019-05-23T06:54:39.492Z,79.08
2019-05-23T06:55:39.677Z,78.84
2019-05-23T06:56:39.840Z,78.55
2019-05-23T06:57:40.009Z,78.64
2019-05-23T06:58:40.212Z,78.27
2019-05-23T06:59:40.349Z,77.97
2019-05-23T07:00:40.654Z,78.02
2019-05-23T07:01:40.689Z,77.82
2019-05-23T07:02:40.857Z,77.92
2019-05-23T07:03:43.452Z,79.36
2019-05-23T07:04:41.199Z,79.83
2019-05-23T07:05:41.376Z,78.53
2019-05-23T07:06:41.545Z,78.53
2019-05-23T07:07:41.712Z,77.42
2019-05-23T07:08:41.881Z,76.46
2019-05-23T07:09:42.057Z,75.60
2019-05-23T07:10:42.357Z,74.77
2019-05-23T07:11:46.178Z,74.58
2019-05-23T07:12:46.378Z,74.10
2019-05-23T07:13:46.202Z,73.62
2019-05-23T07:14:42.985Z,74.77
2019-05-23T07:15:43.069Z,74.62
2019-05-23T07:16:43.259Z,73.75
2019-05-23T07:17:43.405Z,73.11
2019-05-23T07:18:43.707Z,72.06
2019-05-23T07:19:43.757Z,72.48
2019-05-23T07:20:44.569Z,71.42
2019-05-23T07:21:44.129Z,71.04
2019-05-23T07:22:44.322Z,70.07
2019-05-23T07:23:44.493Z,69.12
2019-05-23T07:24:57.566Z,68.57
2019-05-23T07:25:44.844Z,68.48
2019-05-23T07:26:45.021Z,68.51
2019-05-23T07:27:45.199Z,67.55
2019-05-23T07:28:45.373Z,67.00
2019-05-23T07:29:45.559Z,66.71
2019-05-23T07:30:45.764Z,66.04
2019-05-23T07:31:45.946Z,65.98
2019-05-23T07:32:46.177Z,63.98
2019-05-23T07:34:01.202Z,63.12
2019-05-23T07:34:46.467Z,63.63
2019-05-23T07:35:46.628Z,63.82
2019-05-23T07:36:46.804Z,62.12
2019-05-23T07:37:47.066Z,60.77
2019-05-23T07:38:47.109Z,59.74
2019-05-23T07:39:47.287Z,59.93
2019-05-23T07:40:47.480Z,59.96
2019-05-23T07:41:47.644Z,59.58
2019-05-23T07:42:47.821Z,58.25
2019-05-23T07:43:48.323Z,57.87
2019-05-23T07:44:48.751Z,57.67
2019-05-23T07:45:48.310Z,57.57
2019-05-23T07:46:48.505Z,57.31
2019-05-23T07:47:48.686Z,57.89
2019-05-23T07:48:48.865Z,57.34
2019-05-23T07:49:49.040Z,56.86
2019-05-23T07:50:49.218Z,56.40
2019-05-23T07:51:49.401Z,55.60
2019-05-23T07:52:49.844Z,55.99
2019-05-23T07:53:49.888Z,57.03
2019-05-23T07:54:49.861Z,56.93
2019-05-23T07:55:50.034Z,54.75
2019-05-23T07:56:50.201Z,54.57
2019-05-23T07:57:50.375Z,56.11
2019-05-23T07:58:50.551Z,54.27
2019-05-23T07:59:50.780Z,53.69
2019-05-23T08:00:50.949Z,53.79
2019-05-23T08:01:52.494Z,54.17
2019-05-23T08:02:51.363Z,53.81
2019-05-23T08:03:51.634Z,55.36
2019-05-23T08:04:51.747Z,52.68
2019-05-23T08:05:51.826Z,52.58
2019-05-23T08:06:52.029Z,51.93
2019-05-23T08:07:52.231Z,51.32
2019-05-23T08:08:52.980Z,51.64
2019-05-23T08:09:52.577Z,51.57
2019-05-23T08:10:52.736Z,52.44
2019-05-23T08:11:52.960Z,50.62
2019-05-23T08:12:53.323Z,50.82
2019-05-23T08:13:53.261Z,49.97
2019-05-23T08:14:53.564Z,49.22
2019-05-23T08:15:53.600Z,47.45
2019-05-23T08:16:53.823Z,48.03
2019-05-23T08:17:53.995Z,48.15
2019-05-23T08:18:54.175Z,48.44
2019-05-23T08:19:54.341Z,47.20
2019-05-23T08:20:54.530Z,47.01
2019-05-23T08:21:54.717Z,46.55
2019-05-23T08:22:54.896Z,46.18
2019-05-23T08:23:55.726Z,44.94
2019-05-23T08:24:55.263Z,44.33
2019-05-23T08:25:55.460Z,43.96
2019-05-23T08:26:55.632Z,44.38
2019-05-23T08:27:55.811Z,44.16
2019-05-23T08:29:23.710Z,44.48
2019-05-23T08:29:56.172Z,45.04
2019-05-23T08:30:56.347Z,44.28
2019-05-23T08:31:56.532Z,44.76
2019-05-23T08:32:56.806Z,44.18
2019-05-23T08:33:56.852Z,44.57
2019-05-23T08:34:57.101Z,44.67
2019-05-23T08:35:57.460Z,44.09
2019-05-23T08:36:57.466Z,43.96
2019-05-23T08:37:57.629Z,44.84
2019-05-23T08:38:57.798Z,45.62
2019-05-23T08:39:57.988Z,45.52
2019-05-23T08:40:58.167Z,46.59
2019-05-23T08:41:58.349Z,45.72
2019-05-23T08:42:58.536Z,44.38
2019-05-23T08:43:58.725Z,44.18
2019-05-23T08:44:58.924Z,43.99
2019-05-23T08:45:59.569Z,44.40
2019-05-23T08:46:59.291Z,46.25
2019-05-23T08:47:59.470Z,44.89
2019-05-23T08:48:59.646Z,43.91
2019-05-23T08:49:59.822Z,44.59
2019-05-23T08:51:00.024Z,45.67
2019-05-23T08:52:00.185Z,43.93
2019-05-23T08:53:00.362Z,43.21
2019-05-23T08:54:00.565Z,43.99
2019-05-23T08:55:00.756Z,44.28
2019-05-23T08:56:00.931Z,44.96
2019-05-23T08:57:01.134Z,45.81
2019-05-23T08:58:01.323Z,45.91
2019-05-23T08:59:01.506Z,47.66
2019-05-23T09:00:01.692Z,45.64
2019-05-23T09:01:01.871Z,45.57
2019-05-23T09:02:02.044Z,44.28
2019-05-23T09:03:02.239Z,43.99
2019-05-23T09:04:02.438Z,44.67
2019-05-23T09:05:06.051Z,44.01
2019-05-23T09:06:02.774Z,44.20
2019-05-23T09:07:02.986Z,45.86
2019-05-23T09:08:03.143Z,46.83
2019-05-23T09:09:03.430Z,45.00
2019-05-23T09:10:03.501Z,44.90
2019-05-23T09:11:03.730Z,45.00
2019-05-23T09:12:03.884Z,45.39
2019-05-23T09:13:04.188Z,45.81
2019-05-23T09:14:04.241Z,43.08
2019-05-23T09:15:04.659Z,42.10
2019-05-23T09:16:04.863Z,42.47
2019-05-23T09:17:04.825Z,42.08
2019-05-23T09:18:05.025Z,41.77
2019-05-23T09:19:05.202Z,42.57
2019-05-23T09:20:05.364Z,43.15
2019-05-23T09:21:05.543Z,43.35
2019-05-23T09:22:05.725Z,43.84
2019-05-23T09:23:06.153Z,43.66
2019-05-23T09:24:06.047Z,42.69
2019-05-23T09:25:06.245Z,43.59
2019-05-23T09:26:06.432Z,41.83
2019-05-23T09:27:06.607Z,41.46
2019-05-23T09:28:06.793Z,41.07
2019-05-23T09:29:06.976Z,41.09
2019-05-23T09:30:07.150Z,41.31
2019-05-23T09:31:07.430Z,40.53
2019-05-23T09:32:07.555Z,41.33
2019-05-23T09:33:07.724Z,39.88
2019-05-23T09:34:07.929Z,37.63
2019-05-23T09:35:20.530Z,38.02
2019-05-23T09:36:08.301Z,38.71
2019-05-23T09:37:08.485Z,38.18
2019-05-23T09:38:08.671Z,38.30
2019-05-23T09:39:08.871Z,39.10
2019-05-23T09:40:09.020Z,38.81
2019-05-23T09:41:09.209Z,38.26
2019-05-23T09:42:12.031Z,38.28
2019-05-23T09:43:09.585Z,37.34
2019-05-23T09:44:09.767Z,37.35
2019-05-23T09:45:09.953Z,37.24
2019-05-23T09:46:10.132Z,37.35
2019-05-23T09:47:10.556Z,39.90
2019-05-23T09:48:10.800Z,38.65
2019-05-23T09:49:11.530Z,37.39
2019-05-23T09:50:11.088Z,37.49
2019-05-23T09:51:11.057Z,37.79
2019-05-23T09:52:11.661Z,38.71
2019-05-23T09:53:11.427Z,36.36
2019-05-23T09:54:11.625Z,36.18
2019-05-23T09:55:11.803Z,36.87
2019-05-23T09:56:12.207Z,38.04
2019-05-23T09:57:13.371Z,36.73
2019-05-23T09:58:12.386Z,37.99
2019-05-23T09:59:12.525Z,38.26
2019-05-23T10:00:13.501Z,38.71
2019-05-23T10:01:14.447Z,41.01
2019-05-23T10:02:14.254Z,41.75
2019-05-23T10:03:15.228Z,40.55
2019-05-23T10:04:14.540Z,40.33
2019-05-23T10:05:14.701Z,41.77
2019-05-23T10:06:14.617Z,42.60
2019-05-23T10:07:14.382Z,43.82
2019-05-23T10:08:14.001Z,44.68
2019-05-23T10:09:14.173Z,44.85
2019-05-23T10:10:14.347Z,45.87
2019-05-23T10:11:14.540Z,46.82
2019-05-23T10:12:14.933Z,47.57
2019-05-23T10:13:15.254Z,47.45
2019-05-23T10:14:15.079Z,48.20
2019-05-23T10:15:15.259Z,49.17
2019-05-23T10:16:15.440Z,48.37
2019-05-23T10:17:15.617Z,49.82
2019-05-23T10:18:15.780Z,49.95
2019-05-23T10:19:16.142Z,48.44
2019-05-23T10:20:16.152Z,46.11
2019-05-23T10:21:16.313Z,45.21
2019-05-23T10:22:16.475Z,44.48
2019-05-23T10:23:16.656Z,43.05
2019-05-23T10:24:16.841Z,41.36
2019-05-23T10:25:17.025Z,41.35
2019-05-23T10:26:17.205Z,39.04
2019-05-23T10:27:17.384Z,39.67
2019-05-23T10:28:17.640Z,41.03
2019-05-23T10:29:17.750Z,40.99
2019-05-23T10:30:17.916Z,41.03
2019-05-23T10:31:18.100Z,38.43
2019-05-23T10:32:18.282Z,37.60
2019-05-23T10:33:18.456Z,36.15
2019-05-23T10:34:18.638Z,35.58
2019-05-23T10:35:18.836Z,35.64
2019-05-23T10:36:18.992Z,36.04
2019-05-23T10:37:19.165Z,35.75
2019-05-23T10:38:19.349Z,34.70
2019-05-23T10:39:19.529Z,36.87
2019-05-23T10:40:19.703Z,35.69
2019-05-23T10:41:19.929Z,34.42
2019-05-23T10:42:20.064Z,33.23
2019-05-23T10:43:20.235Z,32.92
2019-05-23T10:44:20.412Z,34.23
2019-05-23T10:45:20.587Z,34.21
2019-05-23T10:46:20.782Z,32.95
2019-05-23T10:47:20.951Z,32.86
2019-05-23T10:48:21.201Z,33.05
2019-05-23T10:49:21.321Z,34.67
2019-05-23T10:50:21.514Z,35.41
2019-05-23T10:51:21.685Z,37.21
2019-05-23T10:52:21.872Z,37.27
2019-05-23T10:53:22.085Z,37.93
2019-05-23T10:54:22.265Z,38.60
2019-05-23T10:55:22.459Z,39.36
2019-05-23T10:56:22.629Z,40.29
2019-05-23T10:57:23.246Z,40.26
2019-05-23T10:58:22.935Z,41.70
2019-05-23T10:59:23.125Z,41.88
2019-05-23T11:00:23.300Z,43.06
2019-05-23T11:01:23.499Z,42.54
2019-05-23T11:02:26.891Z,42.31
2019-05-23T11:03:23.842Z,39.90
2019-05-23T11:04:24.027Z,38.57
2019-05-23T11:05:24.237Z,38.59
2019-05-23T11:06:24.422Z,35.98
2019-05-23T11:07:24.600Z,35.02
2019-05-23T11:08:28.949Z,34.65
2019-05-23T11:09:37.462Z,34.18
2019-05-23T11:10:25.150Z,33.20
2019-05-23T11:11:25.365Z,34.09
2019-05-23T11:12:25.502Z,32.84
2019-05-23T11:13:25.684Z,31.59
2019-05-23T11:14:25.862Z,33.17
2019-05-23T11:15:26.042Z,34.24
2019-05-23T11:16:26.225Z,32.79
2019-05-23T11:17:26.400Z,31.71
2019-05-23T11:18:26.597Z,31.91
2019-05-23T11:19:26.758Z,31.99
2019-05-23T11:20:26.937Z,33.25
2019-05-23T11:21:27.116Z,34.03
2019-05-23T11:22:27.292Z,32.84
2019-05-23T11:23:27.477Z,34.11
2019-05-23T11:24:27.697Z,35.19
2019-05-23T11:25:27.845Z,34.58
2019-05-23T11:26:28.028Z,36.24
2019-05-23T11:27:28.207Z,35.63
2019-05-23T11:28:28.385Z,35.02
2019-05-23T11:29:28.565Z,35.65
2019-05-23T11:30:28.742Z,35.73
2019-05-23T11:31:28.925Z,36.02
2019-05-23T11:32:29.114Z,37.46
2019-05-23T11:33:29.282Z,38.32
2019-05-23T11:34:29.465Z,39.57
2019-05-23T11:35:29.643Z,39.84
2019-05-23T11:36:35.481Z,38.60
2019-05-23T11:37:30.006Z,39.88
2019-05-23T11:38:30.189Z,39.86
2019-05-23T11:39:30.369Z,38.70
2019-05-23T11:40:33.549Z,40.44
2019-05-23T11:41:30.729Z,40.34
2019-05-23T11:42:30.932Z,38.79
2019-05-23T11:43:31.088Z,38.70
2019-05-23T11:44:31.269Z,41.13
2019-05-23T11:45:31.447Z,38.96
2019-05-23T11:46:31.643Z,40.31
2019-05-23T11:47:32.264Z,39.70
2019-05-23T11:48:31.986Z,39.78
2019-05-23T11:49:32.165Z,39.88
2019-05-23T11:50:32.337Z,40.46
2019-05-23T11:51:32.812Z,42.19
2019-05-23T11:52:33.037Z,41.30
2019-05-23T11:53:32.867Z,40.81
2019-05-23T11:54:33.042Z,42.90
2019-05-23T11:55:33.242Z,44.54
2019-05-23T11:56:33.395Z,43.38
2019-05-23T11:57:37.246Z,43.29
2019-05-23T11:58:33.743Z,42.71
2019-05-23T11:59:33.910Z,43.87
2019-05-23T12:00:34.131Z,43.75
2019-05-23T12:01:34.266Z,42.71
2019-05-23T12:02:34.461Z,42.41
2019-05-23T12:03:34.863Z,42.71
2019-05-23T12:04:35.180Z,42.90
2019-05-23T12:05:34.964Z,42.97
2019-05-23T12:06:51.692Z,45.03
2019-05-23T12:07:35.323Z,43.00
2019-05-23T12:08:35.584Z,44.45
2019-05-23T12:09:35.649Z,44.09
2019-05-23T12:10:35.844Z,46.41
2019-05-23T12:11:41.279Z,45.07
2019-05-23T12:12:36.226Z,44.98
2019-05-23T12:13:36.396Z,44.68
2019-05-23T12:14:36.565Z,41.58
2019-05-23T12:15:36.749Z,41.97
2019-05-23T12:16:36.916Z,42.55
2019-05-23T12:17:39.048Z,44.49
2019-05-23T12:18:37.239Z,41.47
2019-05-23T12:19:37.541Z,42.44
2019-05-23T12:20:37.555Z,41.35
2019-05-23T12:21:37.734Z,41.74
2019-05-23T12:22:37.984Z,42.03
2019-05-23T12:23:38.088Z,42.90
2019-05-23T12:24:38.370Z,42.68
2019-05-23T12:25:38.436Z,43.55
2019-05-23T12:26:38.622Z,42.78
2019-05-23T12:27:38.794Z,42.40
2019-05-23T12:28:38.966Z,42.88
2019-05-23T12:29:39.181Z,43.77
2019-05-23T12:30:39.503Z,44.74
2019-05-23T12:31:39.582Z,44.64
2019-05-23T12:32:39.737Z,43.96
2019-05-23T12:33:39.925Z,43.77
2019-05-23T12:34:40.078Z,44.26
2019-05-23T12:35:40.257Z,44.62
2019-05-23T12:36:40.423Z,45.40
2019-05-23T12:37:40.814Z,44.35
2019-05-23T12:38:40.787Z,43.96
2019-05-23T12:39:40.946Z,43.68
2019-05-23T12:40:41.122Z,43.09
2019-05-23T12:41:41.303Z,42.61
2019-05-23T12:42:41.569Z,42.41
2019-05-23T12:43:41.686Z,42.90
2019-05-23T12:44:41.869Z,42.61
2019-05-23T12:45:42.037Z,40.19
2019-05-23T12:46:42.209Z,40.19
2019-05-23T12:47:42.391Z,41.64
2019-05-23T12:48:42.563Z,42.22
2019-05-23T12:49:42.740Z,42.90
2019-05-23T12:50:42.918Z,42.49
2019-05-23T12:51:43.091Z,41.42
2019-05-23T12:52:43.267Z,43.75
2019-05-23T12:53:43.445Z,44.62
2019-05-23T12:54:43.622Z,43.85